sensor_id;sensor_type;location;lat;lon;timestamp;P1;durP1;ratioP1;P2;durP2;ratioP2
35380;SDS011;21486;51.916;8.378;2023-12-28T01:33:01;3.88;;;2.20;;
35380;SDS011;21486;51.916;8.378;2023-12-28T01:35:27;4.43;;;2.20;;
35380;SDS011;21486;51.916;8.378;2023-12-28T01:37:53;3.78;;;2.20;;
35380;SDS011;21486;51.916;8.378;2023-12-28T01:40:18;3.90;;;2.00;;
35380;SDS011;21486;51.916;8.378;2023-12-28T01:42:44;3.75;;;1.98;;
35380;SDS011;21486;51.916;8.378;2023-12-28T01:45:10;10.68;;;3.20;;
35380;SDS011;21486;51.916;8.378;2023-12-28T01:47:36;5.27;;;2.10;;
35380;SDS011;21486;51.916;8.378;2023-12-28T01:50:02;4.78;;;2.30;;
35380;SDS011;21486;51.916;8.378;2023-12-28T01:52:28;3.70;;;2.10;;
35380;SDS011;21486;51.916;8.378;2023-12-28T01:54:54;3.42;;;2.28;;
35380;SDS011;21486;51.916;8.378;2023-12-28T01:57:20;3.67;;;1.92;;
35380;SDS011;21486;51.916;8.378;2023-12-28T01:59:45;3.55;;;2.20;;
35380;SDS011;21486;51.916;8.378;2023-12-28T02:02:11;4.68;;;2.22;;
35380;SDS011;21486;51.916;8.378;2023-12-28T02:04:38;3.97;;;2.10;;
35380;SDS011;21486;51.916;8.378;2023-12-28T02:07:04;6.68;;;2.38;;
35380;SDS011;21486;51.916;8.378;2023-12-28T02:09:30;5.47;;;2.70;;
35380;SDS011;21486;51.916;8.378;2023-12-28T02:11:55;4.57;;;2.80;;
35380;SDS011;21486;51.916;8.378;2023-12-28T02:14:21;5.05;;;1.98;;
35380;SDS011;21486;51.916;8.378;2023-12-28T02:16:59;5.23;;;2.17;;
35380;SDS011;21486;51.916;8.378;2023-12-28T02:22:05;3.60;;;1.87;;
35380;SDS011;21486;51.916;8.378;2023-12-28T02:24:32;3.88;;;2.20;;
35380;SDS011;21486;51.916;8.378;2023-12-28T02:26:58;2.78;;;2.00;;
35380;SDS011;21486;51.916;8.378;2023-12-28T02:29:23;3.97;;;2.13;;
35380;SDS011;21486;51.916;8.378;2023-12-28T02:31:53;3.40;;;2.20;;
35380;SDS011;21486;51.916;8.378;2023-12-28T02:34:27;4.07;;;2.20;;
35380;SDS011;21486;51.916;8.378;2023-12-28T02:36:58;5.30;;;2.42;;
35380;SDS011;21486;51.916;8.378;2023-12-28T02:39:25;4.35;;;2.28;;
35380;SDS011;21486;51.916;8.378;2023-12-28T02:41:53;5.10;;;2.17;;
35380;SDS011;21486;51.916;8.378;2023-12-28T02:44:20;3.13;;;2.13;;
35380;SDS011;21486;51.916;8.378;2023-12-28T02:46:46;3.78;;;2.33;;
35380;SDS011;21486;51.916;8.378;2023-12-28T02:49:11;5.65;;;2.50;;
35380;SDS011;21486;51.916;8.378;2023-12-28T02:51:37;4.78;;;2.25;;
35380;SDS011;21486;51.916;8.378;2023-12-28T02:54:03;5.90;;;2.30;;
35380;SDS011;21486;51.916;8.378;2023-12-28T02:56:28;3.77;;;2.30;;
35380;SDS011;21486;51.916;8.378;2023-12-28T02:58:54;4.45;;;2.28;;
35380;SDS011;21486;51.916;8.378;2023-12-28T03:01:20;7.53;;;2.80;;
35380;SDS011;21486;51.916;8.378;2023-12-28T03:03:45;4.97;;;2.60;;
35380;SDS011;21486;51.916;8.378;2023-12-28T03:06:11;5.32;;;2.60;;
35380;SDS011;21486;51.916;8.378;2023-12-28T03:08:36;4.97;;;2.50;;
35380;SDS011;21486;51.916;8.378;2023-12-28T03:11:02;6.30;;;2.73;;
35380;SDS011;21486;51.916;8.378;2023-12-28T03:13:27;4.45;;;2.40;;
35380;SDS011;21486;51.916;8.378;2023-12-28T03:15:53;4.53;;;2.70;;
35380;SDS011;21486;51.916;8.378;2023-12-28T03:18:19;5.47;;;2.53;;
35380;SDS011;21486;51.916;8.378;2023-12-28T03:20:44;5.43;;;2.40;;
35380;SDS011;21486;51.916;8.378;2023-12-28T03:23:11;5.13;;;2.40;;
35380;SDS011;21486;51.916;8.378;2023-12-28T03:25:36;5.00;;;2.50;;
35380;SDS011;21486;51.916;8.378;2023-12-28T03:28:02;5.57;;;2.60;;
35380;SDS011;21486;51.916;8.378;2023-12-28T03:30:28;5.90;;;2.63;;
35380;SDS011;21486;51.916;8.378;2023-12-28T03:32:53;4.70;;;2.70;;
35380;SDS011;21486;51.916;8.378;2023-12-28T03:35:19;3.78;;;2.25;;
35380;SDS011;21486;51.916;8.378;2023-12-28T03:37:44;4.73;;;2.20;;
35380;SDS011;21486;51.916;8.378;2023-12-28T03:40:10;4.10;;;2.50;;
35380;SDS011;21486;51.916;8.378;2023-12-28T03:42:36;5.38;;;2.65;;
35380;SDS011;21486;51.916;8.378;2023-12-28T03:45:01;4.30;;;2.30;;
35380;SDS011;21486;51.916;8.378;2023-12-28T03:47:27;4.60;;;2.38;;
35380;SDS011;21486;51.916;8.378;2023-12-28T03:49:53;4.88;;;2.08;;
35380;SDS011;21486;51.916;8.378;2023-12-28T03:52:21;4.88;;;2.30;;
35380;SDS011;21486;51.916;8.378;2023-12-28T03:54:48;4.87;;;2.63;;
35380;SDS011;21486;51.916;8.378;2023-12-28T03:57:13;3.80;;;2.30;;
35380;SDS011;21486;51.916;8.378;2023-12-28T03:59:39;5.55;;;2.58;;
35380;SDS011;21486;51.916;8.378;2023-12-28T04:02:05;4.32;;;2.10;;
35380;SDS011;21486;51.916;8.378;2023-12-28T04:04:30;5.23;;;2.80;;
35380;SDS011;21486;51.916;8.378;2023-12-28T04:06:56;5.10;;;2.25;;
35380;SDS011;21486;51.916;8.378;2023-12-28T04:09:21;3.20;;;2.23;;
35380;SDS011;21486;51.916;8.378;2023-12-28T04:11:47;4.73;;;2.73;;
35380;SDS011;21486;51.916;8.378;2023-12-28T04:14:13;5.55;;;2.55;;
35380;SDS011;21486;51.916;8.378;2023-12-28T04:16:38;4.57;;;2.15;;
35380;SDS011;21486;51.916;8.378;2023-12-28T04:19:04;4.03;;;2.35;;
35380;SDS011;21486;51.916;8.378;2023-12-28T04:21:29;4.67;;;2.10;;
35380;SDS011;21486;51.916;8.378;2023-12-28T04:23:55;3.73;;;1.93;;
35380;SDS011;21486;51.916;8.378;2023-12-28T04:26:20;3.70;;;2.22;;
35380;SDS011;21486;51.916;8.378;2023-12-28T04:28:46;4.10;;;1.83;;
35380;SDS011;21486;51.916;8.378;2023-12-28T04:31:12;3.47;;;2.08;;
35380;SDS011;21486;51.916;8.378;2023-12-28T04:33:37;4.40;;;2.17;;
35380;SDS011;21486;51.916;8.378;2023-12-28T04:36:03;3.50;;;2.13;;
35380;SDS011;21486;51.916;8.378;2023-12-28T04:38:29;4.15;;;2.13;;
35380;SDS011;21486;51.916;8.378;2023-12-28T04:40:55;4.05;;;2.22;;
35380;SDS011;21486;51.916;8.378;2023-12-28T04:43:20;5.80;;;2.00;;
35380;SDS011;21486;51.916;8.378;2023-12-28T04:45:48;4.55;;;1.95;;
35380;SDS011;21486;51.916;8.378;2023-12-28T04:48:14;4.95;;;2.30;;
35380;SDS011;21486;51.916;8.378;2023-12-28T04:50:40;5.90;;;2.10;;
35380;SDS011;21486;51.916;8.378;2023-12-28T04:53:05;2.33;;;1.80;;
35380;SDS011;21486;51.916;8.378;2023-12-28T04:55:31;2.75;;;1.80;;
35380;SDS011;21486;51.916;8.378;2023-12-28T04:57:56;6.93;;;2.37;;
35380;SDS011;21486;51.916;8.378;2023-12-28T05:00:22;5.10;;;2.13;;
35380;SDS011;21486;51.916;8.378;2023-12-28T05:02:48;3.17;;;2.03;;
35380;SDS011;21486;51.916;8.378;2023-12-28T05:05:13;4.70;;;1.80;;
35380;SDS011;21486;51.916;8.378;2023-12-28T05:07:39;4.78;;;2.05;;
35380;SDS011;21486;51.916;8.378;2023-12-28T05:10:04;5.00;;;1.90;;
35380;SDS011;21486;51.916;8.378;2023-12-28T05:12:30;2.38;;;1.50;;
35380;SDS011;21486;51.916;8.378;2023-12-28T05:14:56;3.55;;;2.05;;
35380;SDS011;21486;51.916;8.378;2023-12-28T05:17:21;4.40;;;1.97;;
35380;SDS011;21486;51.916;8.378;2023-12-28T05:19:47;6.30;;;2.00;;
35380;SDS011;21486;51.916;8.378;2023-12-28T05:22:12;3.55;;;1.88;;
35380;SDS011;21486;51.916;8.378;2023-12-28T05:24:38;3.53;;;1.80;;
35380;SDS011;21486;51.916;8.378;2023-12-28T05:27:04;3.33;;;1.83;;
35380;SDS011;21486;51.916;8.378;2023-12-28T05:29:29;3.53;;;1.90;;
35380;SDS011;21486;51.916;8.378;2023-12-28T05:31:55;5.97;;;1.73;;
35380;SDS011;21486;51.916;8.378;2023-12-28T05:34:20;3.70;;;1.80;;
35380;SDS011;21486;51.916;8.378;2023-12-28T05:36:46;3.67;;;1.90;;
35380;SDS011;21486;51.916;8.378;2023-12-28T05:39:11;4.03;;;1.60;;
35380;SDS011;21486;51.916;8.378;2023-12-28T05:41:40;4.00;;;1.80;;
35380;SDS011;21486;51.916;8.378;2023-12-28T05:44:05;3.38;;;1.73;;
35380;SDS011;21486;51.916;8.378;2023-12-28T05:46:31;5.13;;;1.83;;
35380;SDS011;21486;51.916;8.378;2023-12-28T05:48:57;6.70;;;2.40;;
35380;SDS011;21486;51.916;8.378;2023-12-28T05:51:23;2.75;;;1.40;;
35380;SDS011;21486;51.916;8.378;2023-12-28T05:53:48;6.57;;;2.47;;
35380;SDS011;21486;51.916;8.378;2023-12-28T05:56:14;4.23;;;1.50;;
35380;SDS011;21486;51.916;8.378;2023-12-28T05:58:39;3.03;;;1.73;;
35380;SDS011;21486;51.916;8.378;2023-12-28T06:01:05;5.85;;;1.70;;
35380;SDS011;21486;51.916;8.378;2023-12-28T06:03:31;4.32;;;1.50;;
35380;SDS011;21486;51.916;8.378;2023-12-28T06:05:56;4.65;;;1.83;;
35380;SDS011;21486;51.916;8.378;2023-12-28T06:08:22;5.43;;;1.80;;
35380;SDS011;21486;51.916;8.378;2023-12-28T06:10:47;3.10;;;1.60;;
35380;SDS011;21486;51.916;8.378;2023-12-28T06:13:13;3.72;;;1.70;;
35380;SDS011;21486;51.916;8.378;2023-12-28T06:15:39;4.90;;;1.70;;
35380;SDS011;21486;51.916;8.378;2023-12-28T06:18:05;4.40;;;1.77;;
35380;SDS011;21486;51.916;8.378;2023-12-28T06:20:30;2.47;;;1.53;;
35380;SDS011;21486;51.916;8.378;2023-12-28T06:22:56;4.78;;;1.75;;
35380;SDS011;21486;51.916;8.378;2023-12-28T06:25:22;3.10;;;1.65;;
35380;SDS011;21486;51.916;8.378;2023-12-28T06:27:47;3.33;;;1.90;;
35380;SDS011;21486;51.916;8.378;2023-12-28T06:30:13;3.43;;;1.80;;
35380;SDS011;21486;51.916;8.378;2023-12-28T06:32:38;3.00;;;1.70;;
35380;SDS011;21486;51.916;8.378;2023-12-28T06:35:04;4.17;;;1.70;;
35380;SDS011;21486;51.916;8.378;2023-12-28T06:37:30;4.85;;;1.70;;
35380;SDS011;21486;51.916;8.378;2023-12-28T06:39:56;3.60;;;2.00;;
35380;SDS011;21486;51.916;8.378;2023-12-28T06:42:21;3.45;;;1.50;;
35380;SDS011;21486;51.916;8.378;2023-12-28T06:44:47;4.70;;;1.90;;
35380;SDS011;21486;51.916;8.378;2023-12-28T06:47:12;4.57;;;2.30;;
35380;SDS011;21486;51.916;8.378;2023-12-28T06:49:38;5.27;;;1.83;;
35380;SDS011;21486;51.916;8.378;2023-12-28T06:52:03;4.68;;;1.70;;
35380;SDS011;21486;51.916;8.378;2023-12-28T06:54:29;4.45;;;1.80;;
35380;SDS011;21486;51.916;8.378;2023-12-28T06:56:54;4.07;;;2.13;;
35380;SDS011;21486;51.916;8.378;2023-12-28T06:59:20;6.53;;;2.43;;
35380;SDS011;21486;51.916;8.378;2023-12-28T07:01:45;6.80;;;1.83;;
35380;SDS011;21486;51.916;8.378;2023-12-28T07:04:13;4.45;;;2.35;;
35380;SDS011;21486;51.916;8.378;2023-12-28T07:06:38;3.73;;;1.87;;
35380;SDS011;21486;51.916;8.378;2023-12-28T07:09:04;8.15;;;1.80;;
35380;SDS011;21486;51.916;8.378;2023-12-28T07:11:29;3.05;;;1.58;;
35380;SDS011;21486;51.916;8.378;2023-12-28T07:13:55;5.03;;;1.57;;
35380;SDS011;21486;51.916;8.378;2023-12-28T07:16:20;4.77;;;2.00;;
35380;SDS011;21486;51.916;8.378;2023-12-28T07:18:46;3.13;;;1.70;;
35380;SDS011;21486;51.916;8.378;2023-12-28T07:21:11;5.88;;;1.83;;
35380;SDS011;21486;51.916;8.378;2023-12-28T07:23:37;5.13;;;1.87;;
35380;SDS011;21486;51.916;8.378;2023-12-28T07:26:03;3.55;;;1.60;;
35380;SDS011;21486;51.916;8.378;2023-12-28T07:28:30;5.82;;;1.63;;
35380;SDS011;21486;51.916;8.378;2023-12-28T07:30:56;3.92;;;1.52;;
35380;SDS011;21486;51.916;8.378;2023-12-28T07:33:21;4.95;;;1.70;;
35380;SDS011;21486;51.916;8.378;2023-12-28T07:35:47;5.40;;;2.03;;
35380;SDS011;21486;51.916;8.378;2023-12-28T07:38:13;5.28;;;1.58;;
35380;SDS011;21486;51.916;8.378;2023-12-28T07:40:39;7.03;;;1.70;;
35380;SDS011;21486;51.916;8.378;2023-12-28T07:43:04;4.63;;;2.05;;
35380;SDS011;21486;51.916;8.378;2023-12-28T07:45:30;4.13;;;1.80;;
35380;SDS011;21486;51.916;8.378;2023-12-28T07:47:58;3.55;;;1.80;;
35380;SDS011;21486;51.916;8.378;2023-12-28T07:50:24;2.85;;;1.83;;
35380;SDS011;21486;51.916;8.378;2023-12-28T07:52:50;6.17;;;2.03;;
35380;SDS011;21486;51.916;8.378;2023-12-28T07:55:16;6.30;;;1.75;;
35380;SDS011;21486;51.916;8.378;2023-12-28T07:57:41;4.55;;;1.88;;
35380;SDS011;21486;51.916;8.378;2023-12-28T08:00:07;3.00;;;1.50;;
35380;SDS011;21486;51.916;8.378;2023-12-28T08:02:34;3.88;;;1.90;;
35380;SDS011;21486;51.916;8.378;2023-12-28T08:04:59;5.53;;;1.80;;
35380;SDS011;21486;51.916;8.378;2023-12-28T08:07:25;4.70;;;1.80;;
35380;SDS011;21486;51.916;8.378;2023-12-28T08:09:50;3.57;;;1.90;;
35380;SDS011;21486;51.916;8.378;2023-12-28T08:12:16;5.85;;;2.22;;
35380;SDS011;21486;51.916;8.378;2023-12-28T08:14:42;3.28;;;1.67;;
35380;SDS011;21486;51.916;8.378;2023-12-28T08:17:08;4.38;;;1.80;;
35380;SDS011;21486;51.916;8.378;2023-12-28T08:19:34;3.73;;;1.67;;
35380;SDS011;21486;51.916;8.378;2023-12-28T08:21:59;8.10;;;1.97;;
35380;SDS011;21486;51.916;8.378;2023-12-28T08:24:25;4.78;;;1.75;;
35380;SDS011;21486;51.916;8.378;2023-12-28T08:26:50;7.13;;;2.07;;
35380;SDS011;21486;51.916;8.378;2023-12-28T08:29:16;6.77;;;2.10;;
35380;SDS011;21486;51.916;8.378;2023-12-28T08:31:42;5.05;;;1.88;;
35380;SDS011;21486;51.916;8.378;2023-12-28T08:34:08;5.63;;;1.87;;
35380;SDS011;21486;51.916;8.378;2023-12-28T08:36:33;6.72;;;2.03;;
35380;SDS011;21486;51.916;8.378;2023-12-28T08:38:59;4.47;;;1.73;;
35380;SDS011;21486;51.916;8.378;2023-12-28T08:41:24;4.43;;;1.83;;
35380;SDS011;21486;51.916;8.378;2023-12-28T08:43:51;4.25;;;1.80;;
35380;SDS011;21486;51.916;8.378;2023-12-28T08:46:19;4.18;;;1.90;;
35380;SDS011;21486;51.916;8.378;2023-12-28T08:48:45;4.63;;;2.00;;
35380;SDS011;21486;51.916;8.378;2023-12-28T08:51:10;5.68;;;2.15;;
35380;SDS011;21486;51.916;8.378;2023-12-28T08:53:36;5.88;;;2.00;;
35380;SDS011;21486;51.916;8.378;2023-12-28T08:56:02;5.72;;;2.00;;
35380;SDS011;21486;51.916;8.378;2023-12-28T08:58:37;6.05;;;2.15;;
35380;SDS011;21486;51.916;8.378;2023-12-28T09:01:02;4.97;;;1.85;;
35380;SDS011;21486;51.916;8.378;2023-12-28T09:03:28;7.00;;;1.90;;
35380;SDS011;21486;51.916;8.378;2023-12-28T09:05:53;2.50;;;1.77;;
35380;SDS011;21486;51.916;8.378;2023-12-28T09:08:19;3.70;;;2.15;;
35380;SDS011;21486;51.916;8.378;2023-12-28T09:10:44;4.60;;;1.92;;
35380;SDS011;21486;51.916;8.378;2023-12-28T09:13:14;5.50;;;2.00;;
35380;SDS011;21486;51.916;8.378;2023-12-28T09:15:40;3.67;;;1.70;;
35380;SDS011;21486;51.916;8.378;2023-12-28T09:18:06;5.63;;;1.92;;
35380;SDS011;21486;51.916;8.378;2023-12-28T09:20:31;6.33;;;2.00;;
35380;SDS011;21486;51.916;8.378;2023-12-28T09:22:57;6.73;;;2.07;;
35380;SDS011;21486;51.916;8.378;2023-12-28T09:25:22;2.85;;;1.92;;
35380;SDS011;21486;51.916;8.378;2023-12-28T09:27:49;4.00;;;1.90;;
35380;SDS011;21486;51.916;8.378;2023-12-28T09:30:14;6.60;;;2.40;;
35380;SDS011;21486;51.916;8.378;2023-12-28T09:32:40;3.47;;;2.03;;
35380;SDS011;21486;51.916;8.378;2023-12-28T09:35:05;6.53;;;2.25;;
35380;SDS011;21486;51.916;8.378;2023-12-28T09:37:31;7.55;;;2.60;;
35380;SDS011;21486;51.916;8.378;2023-12-28T09:39:57;5.07;;;1.87;;
35380;SDS011;21486;51.916;8.378;2023-12-28T09:42:25;5.90;;;2.20;;
35380;SDS011;21486;51.916;8.378;2023-12-28T09:44:54;4.13;;;1.80;;
35380;SDS011;21486;51.916;8.378;2023-12-28T09:47:19;6.13;;;2.27;;
35380;SDS011;21486;51.916;8.378;2023-12-28T09:49:45;6.73;;;2.30;;
35380;SDS011;21486;51.916;8.378;2023-12-28T09:52:11;5.38;;;1.80;;
35380;SDS011;21486;51.916;8.378;2023-12-28T09:54:37;5.20;;;2.00;;
35380;SDS011;21486;51.916;8.378;2023-12-28T09:57:03;7.60;;;2.10;;
35380;SDS011;21486;51.916;8.378;2023-12-28T09:59:29;8.45;;;1.90;;
35380;SDS011;21486;51.916;8.378;2023-12-28T10:01:57;5.57;;;1.85;;
35380;SDS011;21486;51.916;8.378;2023-12-28T10:04:25;6.20;;;2.47;;
35380;SDS011;21486;51.916;8.378;2023-12-28T10:06:53;7.00;;;2.10;;
35380;SDS011;21486;51.916;8.378;2023-12-28T10:09:19;6.05;;;1.70;;
35380;SDS011;21486;51.916;8.378;2023-12-28T10:11:44;7.63;;;1.83;;
35380;SDS011;21486;51.916;8.378;2023-12-28T10:14:10;7.00;;;1.70;;
35380;SDS011;21486;51.916;8.378;2023-12-28T10:16:39;7.20;;;2.30;;
35380;SDS011;21486;51.916;8.378;2023-12-28T10:19:07;5.75;;;1.88;;
35380;SDS011;21486;51.916;8.378;2023-12-28T10:21:33;7.93;;;1.73;;
35380;SDS011;21486;51.916;8.378;2023-12-28T10:23:59;5.40;;;1.60;;
35380;SDS011;21486;51.916;8.378;2023-12-28T10:26:24;8.47;;;1.97;;
35380;SDS011;21486;51.916;8.378;2023-12-28T10:28:50;5.93;;;1.90;;
35380;SDS011;21486;51.916;8.378;2023-12-28T10:31:21;6.70;;;2.05;;
35380;SDS011;21486;51.916;8.378;2023-12-28T10:33:47;7.87;;;2.00;;
35380;SDS011;21486;51.916;8.378;2023-12-28T10:36:13;5.28;;;1.95;;
35380;SDS011;21486;51.916;8.378;2023-12-28T10:38:41;8.75;;;1.70;;
35380;SDS011;21486;51.916;8.378;2023-12-28T10:41:10;12.65;;;2.28;;
35380;SDS011;21486;51.916;8.378;2023-12-28T10:44:23;7.55;;;1.80;;
35380;SDS011;21486;51.916;8.378;2023-12-28T10:46:30;8.23;;;2.15;;
35380;SDS011;21486;51.916;8.378;2023-12-28T10:49:00;10.10;;;1.85;;
35380;SDS011;21486;51.916;8.378;2023-12-28T10:51:31;7.05;;;2.25;;
35380;SDS011;21486;51.916;8.378;2023-12-28T10:56:47;12.93;;;2.10;;
35380;SDS011;21486;51.916;8.378;2023-12-28T10:59:31;8.30;;;2.08;;
35380;SDS011;21486;51.916;8.378;2023-12-28T11:02:06;11.07;;;2.45;;
35380;SDS011;21486;51.916;8.378;2023-12-28T11:04:37;7.87;;;1.93;;
35380;SDS011;21486;51.916;8.378;2023-12-28T11:07:06;8.15;;;1.95;;
35380;SDS011;21486;51.916;8.378;2023-12-28T11:09:34;8.32;;;1.85;;
35380;SDS011;21486;51.916;8.378;2023-12-28T11:12:02;11.32;;;2.70;;
35380;SDS011;21486;51.916;8.378;2023-12-28T11:14:33;9.48;;;2.30;;
35380;SDS011;21486;51.916;8.378;2023-12-28T11:16:59;9.30;;;2.50;;
35380;SDS011;21486;51.916;8.378;2023-12-28T11:19:26;6.32;;;1.95;;
35380;SDS011;21486;51.916;8.378;2023-12-28T11:21:52;10.48;;;2.08;;
35380;SDS011;21486;51.916;8.378;2023-12-28T11:24:21;11.25;;;2.15;;
35380;SDS011;21486;51.916;8.378;2023-12-28T11:26:52;9.05;;;2.60;;
35380;SDS011;21486;51.916;8.378;2023-12-28T11:29:19;8.97;;;2.23;;
35380;SDS011;21486;51.916;8.378;2023-12-28T11:31:50;6.20;;;2.10;;
35380;SDS011;21486;51.916;8.378;2023-12-28T11:34:16;9.63;;;2.25;;
35380;SDS011;21486;51.916;8.378;2023-12-28T11:36:49;6.68;;;1.75;;
35380;SDS011;21486;51.916;8.378;2023-12-28T11:39:20;6.38;;;1.98;;
35380;SDS011;21486;51.916;8.378;2023-12-28T11:42:08;8.43;;;2.22;;
35380;SDS011;21486;51.916;8.378;2023-12-28T11:44:38;6.82;;;1.83;;
35380;SDS011;21486;51.916;8.378;2023-12-28T11:47:12;8.00;;;2.00;;
35380;SDS011;21486;51.916;8.378;2023-12-28T11:49:42;11.40;;;1.98;;
35380;SDS011;21486;51.916;8.378;2023-12-28T11:52:11;10.43;;;2.08;;
35380;SDS011;21486;51.916;8.378;2023-12-28T11:54:48;6.82;;;1.85;;
35380;SDS011;21486;51.916;8.378;2023-12-28T11:57:15;11.35;;;2.25;;
35380;SDS011;21486;51.916;8.378;2023-12-28T11:59:41;5.67;;;1.90;;
35380;SDS011;21486;51.916;8.378;2023-12-28T12:02:06;8.40;;;1.87;;
35380;SDS011;21486;51.916;8.378;2023-12-28T12:04:33;8.38;;;1.90;;
35380;SDS011;21486;51.916;8.378;2023-12-28T12:07:03;8.60;;;1.92;;
35380;SDS011;21486;51.916;8.378;2023-12-28T12:09:29;12.30;;;2.08;;
35380;SDS011;21486;51.916;8.378;2023-12-28T12:11:59;8.68;;;2.78;;
35380;SDS011;21486;51.916;8.378;2023-12-28T12:14:25;7.32;;;2.00;;
35380;SDS011;21486;51.916;8.378;2023-12-28T12:16:51;6.40;;;1.88;;
35380;SDS011;21486;51.916;8.378;2023-12-28T12:19:17;8.13;;;2.25;;
35380;SDS011;21486;51.916;8.378;2023-12-28T12:21:43;11.47;;;2.07;;
35380;SDS011;21486;51.916;8.378;2023-12-28T12:24:09;5.60;;;2.33;;
35380;SDS011;21486;51.916;8.378;2023-12-28T12:26:35;7.67;;;2.27;;
35380;SDS011;21486;51.916;8.378;2023-12-28T12:29:01;9.38;;;2.20;;
35380;SDS011;21486;51.916;8.378;2023-12-28T12:31:27;9.73;;;2.23;;
35380;SDS011;21486;51.916;8.378;2023-12-28T12:33:53;10.60;;;2.40;;
35380;SDS011;21486;51.916;8.378;2023-12-28T12:36:19;12.67;;;2.17;;
35380;SDS011;21486;51.916;8.378;2023-12-28T12:38:46;14.00;;;2.10;;
35380;SDS011;21486;51.916;8.378;2023-12-28T12:41:12;13.00;;;1.90;;
35380;SDS011;21486;51.916;8.378;2023-12-28T12:43:37;9.55;;;1.98;;
35380;SDS011;21486;51.916;8.378;2023-12-28T12:46:05;7.72;;;1.90;;
35380;SDS011;21486;51.916;8.378;2023-12-28T12:48:31;9.48;;;1.92;;
35380;SDS011;21486;51.916;8.378;2023-12-28T12:50:57;8.93;;;2.13;;
35380;SDS011;21486;51.916;8.378;2023-12-28T12:53:22;4.97;;;2.23;;
35380;SDS011;21486;51.916;8.378;2023-12-28T12:55:48;7.70;;;1.90;;
35380;SDS011;21486;51.916;8.378;2023-12-28T12:58:14;6.78;;;1.80;;
35380;SDS011;21486;51.916;8.378;2023-12-28T13:00:42;10.38;;;2.05;;
35380;SDS011;21486;51.916;8.378;2023-12-28T13:03:09;10.07;;;1.70;;
35380;SDS011;21486;51.916;8.378;2023-12-28T13:05:35;10.10;;;2.10;;
35380;SDS011;21486;51.916;8.378;2023-12-28T13:08:02;9.30;;;2.03;;
35380;SDS011;21486;51.916;8.378;2023-12-28T13:10:29;9.43;;;2.22;;
35380;SDS011;21486;51.916;8.378;2023-12-28T13:12:55;9.97;;;2.50;;
35380;SDS011;21486;51.916;8.378;2023-12-28T13:15:21;9.43;;;2.00;;
35380;SDS011;21486;51.916;8.378;2023-12-28T13:17:46;6.50;;;1.63;;
35380;SDS011;21486;51.916;8.378;2023-12-28T13:20:12;11.77;;;2.58;;
35380;SDS011;21486;51.916;8.378;2023-12-28T13:22:37;10.07;;;2.08;;
35380;SDS011;21486;51.916;8.378;2023-12-28T13:25:03;11.63;;;3.33;;
35380;SDS011;21486;51.916;8.378;2023-12-28T13:27:29;7.50;;;1.83;;
35380;SDS011;21486;51.916;8.378;2023-12-28T13:29:56;7.38;;;1.95;;
35380;SDS011;21486;51.916;8.378;2023-12-28T13:32:22;10.65;;;2.30;;
35380;SDS011;21486;51.916;8.378;2023-12-28T13:34:48;7.88;;;2.30;;
35380;SDS011;21486;51.916;8.378;2023-12-28T13:37:15;21.85;;;11.52;;
35380;SDS011;21486;51.916;8.378;2023-12-28T13:39:41;18.50;;;9.85;;
35380;SDS011;21486;51.916;8.378;2023-12-28T13:42:07;8.38;;;2.42;;
35380;SDS011;21486;51.916;8.378;2023-12-28T13:44:33;15.70;;;5.90;;
35380;SDS011;21486;51.916;8.378;2023-12-28T13:47:00;7.28;;;2.15;;
35380;SDS011;21486;51.916;8.378;2023-12-28T13:49:26;18.67;;;4.70;;
35380;SDS011;21486;51.916;8.378;2023-12-28T13:51:52;8.93;;;1.83;;
35380;SDS011;21486;51.916;8.378;2023-12-28T13:54:17;8.37;;;2.00;;
35380;SDS011;21486;51.916;8.378;2023-12-28T13:56:44;8.07;;;2.05;;
35380;SDS011;21486;51.916;8.378;2023-12-28T13:59:10;10.67;;;1.70;;
35380;SDS011;21486;51.916;8.378;2023-12-28T14:01:36;11.93;;;2.22;;
35380;SDS011;21486;51.916;8.378;2023-12-28T14:04:03;10.90;;;1.90;;
35380;SDS011;21486;51.916;8.378;2023-12-28T14:06:28;7.87;;;1.60;;
35380;SDS011;21486;51.916;8.378;2023-12-28T14:08:54;13.70;;;2.00;;
35380;SDS011;21486;51.916;8.378;2023-12-28T14:11:19;9.20;;;1.92;;
35380;SDS011;21486;51.916;8.378;2023-12-28T14:13:45;10.88;;;2.03;;
35380;SDS011;21486;51.916;8.378;2023-12-28T14:16:10;13.83;;;4.33;;
35380;SDS011;21486;51.916;8.378;2023-12-28T14:18:36;13.00;;;2.20;;
35380;SDS011;21486;51.916;8.378;2023-12-28T14:21:04;11.20;;;2.10;;
35380;SDS011;21486;51.916;8.378;2023-12-28T14:23:29;11.15;;;2.53;;
35380;SDS011;21486;51.916;8.378;2023-12-28T14:25:55;10.32;;;2.42;;
35380;SDS011;21486;51.916;8.378;2023-12-28T14:28:21;11.80;;;2.10;;
35380;SDS011;21486;51.916;8.378;2023-12-28T14:30:49;11.20;;;2.13;;
35380;SDS011;21486;51.916;8.378;2023-12-28T14:33:15;11.40;;;2.20;;
35380;SDS011;21486;51.916;8.378;2023-12-28T14:35:41;15.90;;;2.25;;
35380;SDS011;21486;51.916;8.378;2023-12-28T14:38:07;11.52;;;2.40;;
35380;SDS011;21486;51.916;8.378;2023-12-28T14:40:33;8.48;;;1.98;;
35380;SDS011;21486;51.916;8.378;2023-12-28T14:42:58;12.82;;;2.13;;
35380;SDS011;21486;51.916;8.378;2023-12-28T14:45:24;8.07;;;2.30;;
35380;SDS011;21486;51.916;8.378;2023-12-28T14:47:50;7.50;;;2.10;;
35380;SDS011;21486;51.916;8.378;2023-12-28T14:50:15;7.95;;;1.98;;
35380;SDS011;21486;51.916;8.378;2023-12-28T14:52:41;5.73;;;1.90;;
35380;SDS011;21486;51.916;8.378;2023-12-28T14:55:07;8.93;;;2.25;;
35380;SDS011;21486;51.916;8.378;2023-12-28T14:57:34;7.93;;;1.95;;
35380;SDS011;21486;51.916;8.378;2023-12-28T14:59:59;10.65;;;1.80;;
35380;SDS011;21486;51.916;8.378;2023-12-28T15:02:25;6.57;;;1.73;;
35380;SDS011;21486;51.916;8.378;2023-12-28T15:04:50;5.20;;;1.73;;
35380;SDS011;21486;51.916;8.378;2023-12-28T15:07:17;9.77;;;2.60;;
35380;SDS011;21486;51.916;8.378;2023-12-28T15:09:44;9.95;;;2.97;;
35380;SDS011;21486;51.916;8.378;2023-12-28T15:12:10;6.97;;;1.90;;
35380;SDS011;21486;51.916;8.378;2023-12-28T15:14:35;6.18;;;1.52;;
35380;SDS011;21486;51.916;8.378;2023-12-28T15:17:01;6.72;;;1.80;;
35380;SDS011;21486;51.916;8.378;2023-12-28T15:19:27;10.40;;;2.08;;
35380;SDS011;21486;51.916;8.378;2023-12-28T15:21:53;9.60;;;2.10;;
35380;SDS011;21486;51.916;8.378;2023-12-28T15:24:19;4.95;;;1.90;;
35380;SDS011;21486;51.916;8.378;2023-12-28T15:26:44;5.72;;;2.00;;
35380;SDS011;21486;51.916;8.378;2023-12-28T15:29:10;11.93;;;2.13;;
35380;SDS011;21486;51.916;8.378;2023-12-28T15:31:37;10.98;;;2.00;;
35380;SDS011;21486;51.916;8.378;2023-12-28T15:34:02;9.57;;;2.20;;
35380;SDS011;21486;51.916;8.378;2023-12-28T15:36:28;8.43;;;2.13;;
35380;SDS011;21486;51.916;8.378;2023-12-28T15:38:54;8.23;;;1.90;;
35380;SDS011;21486;51.916;8.378;2023-12-28T15:41:19;11.57;;;2.00;;
35380;SDS011;21486;51.916;8.378;2023-12-28T15:43:45;15.48;;;2.63;;
35380;SDS011;21486;51.916;8.378;2023-12-28T15:46:10;7.65;;;2.10;;
35380;SDS011;21486;51.916;8.378;2023-12-28T15:48:36;8.40;;;2.00;;
35380;SDS011;21486;51.916;8.378;2023-12-28T15:51:02;9.50;;;2.73;;
35380;SDS011;21486;51.916;8.378;2023-12-28T15:53:27;7.00;;;2.00;;
35380;SDS011;21486;51.916;8.378;2023-12-28T15:55:53;4.53;;;1.90;;
35380;SDS011;21486;51.916;8.378;2023-12-28T15:58:18;10.70;;;2.45;;
35380;SDS011;21486;51.916;8.378;2023-12-28T16:00:47;7.05;;;2.00;;
35380;SDS011;21486;51.916;8.378;2023-12-28T16:03:13;6.93;;;1.90;;
35380;SDS011;21486;51.916;8.378;2023-12-28T16:05:39;6.73;;;2.30;;
35380;SDS011;21486;51.916;8.378;2023-12-28T16:08:04;7.10;;;1.90;;
35380;SDS011;21486;51.916;8.378;2023-12-28T16:10:30;8.05;;;2.03;;
35380;SDS011;21486;51.916;8.378;2023-12-28T16:12:56;9.98;;;2.20;;
35380;SDS011;21486;51.916;8.378;2023-12-28T16:15:21;10.52;;;2.80;;
35380;SDS011;21486;51.916;8.378;2023-12-28T16:17:47;5.38;;;2.00;;